Terminal Aerodrome Forecast
Issued by NWS Sterling, VA

Home | Current Version | Previous Version | Text Only | Print | Product List | Glossary On
Versions: 1 2 3 4 5 6 7 8 9 10 11 12 13 14 15 16 17 18 19 20 21 22 23 24 25 26 27 28 29 30
147
FTUS41 KLWX 051140
TAFIAD
TAF
KIAD 051140Z 0512/0618 05006KT P6SM OVC008
      TEMPO 0512/0514 2SM -DZ BR OVC005
     FM051500 02008KT P6SM OVC012
     FM052200 02007KT 5SM -SHRA OVC030
     FM060500 36005KT 3SM SHRA BR OVC008=

USA.gov is the U.S. government's official web portal to all federal, state and local government web resources and services.